createdAt,value
2023-04-10T00:00:57.341Z,102213.84
2023-04-10T00:03:25.054Z,102198.66
2023-04-10T00:05:54.632Z,102199.59
2023-04-10T00:08:25.703Z,102189.97
2023-04-10T00:10:54.515Z,102178.22
2023-04-10T00:13:21.179Z,102189.31
2023-04-10T00:15:48.322Z,102209.44
2023-04-10T00:18:14.903Z,102210.38
2023-04-10T00:20:41.848Z,102205.28
2023-04-10T00:23:08.603Z,102194.06
2023-04-10T00:25:35.437Z,102203.19
2023-04-10T00:28:02.079Z,102204.16
2023-04-10T00:30:28.646Z,102194.59
2023-04-10T00:32:55.394Z,102174.13
2023-04-10T00:35:22.120Z,102187.66
2023-04-10T00:37:50.342Z,102119.72
2023-04-10T00:40:17.119Z,102162.44
2023-04-10T00:42:43.704Z,102170.81
2023-04-10T00:45:10.838Z,102142.69
2023-04-10T00:47:38.167Z,102168.31
2023-04-10T00:50:05.653Z,102146.03
2023-04-10T00:52:32.764Z,102149.59
2023-04-10T00:54:59.481Z,102126.34
2023-04-10T00:57:27.172Z,102140.75
2023-04-10T00:59:54.080Z,102144.47
2023-04-10T01:02:21.088Z,102117.75
2023-04-10T01:04:48.195Z,102121.25
2023-04-10T01:07:53.646Z,102138.47
2023-04-10T01:10:48.604Z,102134.28
2023-04-10T01:13:23.011Z,102106.09
2023-04-10T01:15:58.187Z,102112.81
2023-04-10T01:18:34.134Z,102107.00
2023-04-10T01:21:05.706Z,102094.50
2023-04-10T01:23:32.719Z,102121.34
2023-04-10T01:26:03.319Z,102117.25
2023-04-10T01:28:48.297Z,102120.06
2023-04-10T01:31:38.171Z,102111.44
2023-04-10T01:34:11.627Z,102101.41
2023-04-10T01:36:46.317Z,102102.78
2023-04-10T01:39:13.777Z,102082.50
2023-04-10T01:41:44.348Z,102079.59
2023-04-10T01:44:11.807Z,102099.50
2023-04-10T01:46:39.313Z,102075.34
2023-04-10T01:49:07.077Z,102084.28
2023-04-10T01:51:35.482Z,102091.88
2023-04-10T01:54:05.157Z,102082.16
2023-04-10T01:56:33.947Z,102037.28
2023-04-10T01:59:00.613Z,102056.63
2023-04-10T02:01:30.257Z,102043.16
2023-04-10T02:03:58.915Z,102080.63
2023-04-10T02:07:00.240Z,102019.19
2023-04-10T02:09:37.702Z,102072.13
2023-04-10T02:12:13.160Z,102040.53
2023-04-10T02:14:44.214Z,102073.03
2023-04-10T02:17:16.335Z,102071.25
2023-04-10T02:19:45.415Z,102043.41
2023-04-10T02:22:12.833Z,102051.69
2023-04-10T02:24:39.467Z,102048.19
2023-04-10T02:27:06.139Z,102032.78
2023-04-10T02:29:32.828Z,102063.41
2023-04-10T02:31:59.922Z,102027.19
2023-04-10T02:34:27.216Z,102042.50
2023-04-10T02:36:54.837Z,102033.22
2023-04-10T02:39:21.499Z,102041.47
2023-04-10T02:41:48.078Z,102024.63
2023-04-10T02:44:14.902Z,101999.78
2023-04-10T02:46:42.142Z,102033.16
2023-04-10T02:49:08.864Z,102023.75
2023-04-10T02:51:36.434Z,102025.56
2023-04-10T02:54:03.242Z,102035.53
2023-04-10T02:56:29.882Z,102029.47
2023-04-10T02:58:57.086Z,102019.84
2023-04-10T03:01:23.751Z,102043.94
2023-04-10T03:03:50.640Z,102034.31
2023-04-10T03:06:17.534Z,102018.94
2023-04-10T03:08:44.324Z,102041.22
2023-04-10T03:11:11.033Z,102028.38
2023-04-10T03:13:37.672Z,102016.47
2023-04-10T03:16:04.682Z,102030.31
2023-04-10T03:18:32.030Z,102023.25
2023-04-10T03:20:58.799Z,102020.91
2023-04-10T03:23:25.436Z,102032.81
2023-04-10T03:25:54.790Z,102044.03
2023-04-10T03:28:21.930Z,102041.31
2023-04-10T03:30:50.374Z,102042.09
2023-04-10T03:33:16.957Z,102033.47
2023-04-10T03:35:45.772Z,102029.31
2023-04-10T03:38:12.516Z,101996.22
2023-04-10T03:40:39.222Z,102003.16
2023-04-10T03:43:06.160Z,102030.25
2023-04-10T03:45:32.842Z,102001.31
2023-04-10T03:47:59.562Z,102004.56
2023-04-10T03:50:26.277Z,102013.13
2023-04-10T03:52:52.897Z,102015.63
2023-04-10T03:55:19.810Z,102000.53
2023-04-10T03:57:47.094Z,101999.78
2023-04-10T04:00:15.040Z,102025.47
2023-04-10T04:02:42.144Z,102017.56
2023-04-10T04:05:09.793Z,101980.13
2023-04-10T04:07:36.552Z,102004.03
2023-04-10T04:10:03.712Z,101999.16
2023-04-10T04:12:30.404Z,101997.50
2023-04-10T04:14:57.350Z,102000.28
2023-04-10T04:17:23.997Z,101983.94
2023-04-10T04:19:50.817Z,101979.69
2023-04-10T04:22:18.000Z,101975.63
2023-04-10T04:24:44.570Z,101964.31
2023-04-10T04:27:11.703Z,101933.78
2023-04-10T04:29:38.404Z,101978.19
2023-04-10T04:32:05.163Z,101944.41
2023-04-10T04:34:32.106Z,101971.53
2023-04-10T04:36:58.850Z,101970.34
2023-04-10T04:39:25.408Z,101943.78
2023-04-10T04:41:52.144Z,101904.59
2023-04-10T04:44:19.812Z,101957.91
2023-04-10T04:46:47.041Z,101945.84
2023-04-10T04:49:13.753Z,101946.50
2023-04-10T04:51:40.417Z,101946.19
2023-04-10T04:54:06.986Z,101946.69
2023-04-10T04:56:33.664Z,101942.25
2023-04-10T04:59:00.591Z,101947.09
2023-04-10T05:01:27.288Z,101943.84
2023-04-10T05:03:54.039Z,101951.06
2023-04-10T05:06:21.804Z,101945.97
2023-04-10T05:08:48.512Z,101949.16
2023-04-10T05:11:15.666Z,101917.13
2023-04-10T05:13:42.274Z,101951.88
2023-04-10T05:16:09.031Z,101936.22
2023-04-10T05:18:36.032Z,101944.81
2023-04-10T05:21:02.667Z,101935.69
2023-04-10T05:23:29.272Z,101916.81
2023-04-10T05:25:56.028Z,101910.50
2023-04-10T05:28:23.348Z,101931.91
2023-04-10T05:30:50.082Z,101931.19
2023-04-10T05:33:16.748Z,101941.31
2023-04-10T05:35:43.560Z,101952.91
2023-04-10T05:38:10.302Z,101945.75
2023-04-10T05:40:37.176Z,101946.56
2023-04-10T05:43:04.191Z,101960.97
2023-04-10T05:45:30.898Z,101946.94
2023-04-10T05:47:57.518Z,101950.53
2023-04-10T05:50:24.118Z,101948.03
2023-04-10T05:52:50.670Z,101951.81
2023-04-10T05:55:17.315Z,101955.59
2023-04-10T05:57:44.106Z,101949.69
2023-04-10T06:00:11.405Z,101929.13
2023-04-10T06:02:38.344Z,101924.19
2023-04-10T06:05:05.490Z,101930.38
2023-04-10T06:07:33.328Z,101887.34
2023-04-10T06:10:00.100Z,101923.88
2023-04-10T06:12:26.843Z,101937.69
2023-04-10T06:14:53.487Z,101930.94
2023-04-10T06:17:21.636Z,101927.78
2023-04-10T06:19:48.488Z,101922.59
2023-04-10T06:22:15.365Z,101926.56
2023-04-10T06:24:42.499Z,101917.06
2023-04-10T06:27:09.300Z,101911.09
2023-04-10T06:29:35.980Z,101908.25
2023-04-10T06:32:02.723Z,101897.31
2023-04-10T06:34:29.396Z,101909.19
2023-04-10T06:36:56.190Z,101902.38
2023-04-10T06:39:22.948Z,101877.38
2023-04-10T06:41:49.547Z,101884.22
2023-04-10T06:44:16.274Z,101894.44
2023-04-10T06:46:42.958Z,101881.25
2023-04-10T06:49:09.559Z,101882.44
2023-04-10T06:51:36.495Z,101878.28
2023-04-10T06:54:03.112Z,101884.25
2023-04-10T06:56:29.778Z,101884.03
2023-04-10T06:58:56.669Z,101889.56
2023-04-10T07:01:23.308Z,101881.31
2023-04-10T07:03:49.957Z,101876.56
2023-04-10T07:06:16.613Z,101863.47
2023-04-10T07:08:43.275Z,101846.78
2023-04-10T07:11:09.865Z,101841.22
2023-04-10T07:13:38.959Z,101868.78
2023-04-10T07:16:06.621Z,101860.59
2023-04-10T07:18:33.286Z,101860.03
2023-04-10T07:20:59.876Z,101841.47
2023-04-10T07:23:26.588Z,101829.78
2023-04-10T07:25:53.533Z,101838.91
2023-04-10T07:28:20.339Z,101814.31
2023-04-10T07:30:47.148Z,101826.94
2023-04-10T07:33:13.862Z,101819.25
2023-04-10T07:35:40.831Z,101802.19
2023-04-10T07:38:07.650Z,101817.06
2023-04-10T07:40:34.285Z,101810.72
2023-04-10T07:43:00.860Z,101795.50
2023-04-10T07:45:28.630Z,101797.97
2023-04-10T07:47:55.427Z,101766.06
2023-04-10T07:50:22.808Z,101795.19
2023-04-10T07:52:49.663Z,101784.03
2023-04-10T07:55:16.661Z,101780.31
2023-04-10T07:57:43.288Z,101764.69
2023-04-10T08:00:10.478Z,101772.38
2023-04-10T08:02:37.243Z,101765.63
2023-04-10T08:05:04.192Z,101745.00
2023-04-10T08:07:31.407Z,101770.88
2023-04-10T08:09:58.151Z,101730.75
2023-04-10T08:12:24.748Z,101756.81
2023-04-10T08:14:51.804Z,101733.25
2023-04-10T08:17:18.508Z,101734.63
2023-04-10T08:19:45.171Z,101741.81
2023-04-10T08:22:11.777Z,101737.63
2023-04-10T08:24:38.448Z,101734.94
2023-04-10T08:27:05.050Z,101732.97
2023-04-10T08:29:31.766Z,101714.84
2023-04-10T08:32:01.072Z,101731.69
2023-04-10T08:34:28.037Z,101692.88
2023-04-10T08:36:55.006Z,101723.16
2023-04-10T08:39:21.750Z,101721.81
2023-04-10T08:41:48.483Z,101725.66
2023-04-10T08:44:15.287Z,101710.34
2023-04-10T08:46:44.081Z,101717.28
2023-04-10T08:49:17.217Z,101714.81
2023-04-10T08:51:51.890Z,101730.31
2023-04-10T08:54:27.900Z,101716.97
2023-04-10T08:56:56.815Z,101728.50
2023-04-10T08:59:23.586Z,101710.25
2023-04-10T09:01:50.516Z,101721.34
2023-04-10T09:04:18.136Z,101694.53
2023-04-10T09:06:45.171Z,101698.75
2023-04-10T09:09:11.965Z,101667.00
2023-04-10T09:11:56.663Z,101700.16
2023-04-10T09:14:26.168Z,101690.00
2023-04-10T09:16:54.856Z,101676.81
2023-04-10T09:19:32.825Z,101682.94
2023-04-10T09:21:59.921Z,101640.22
2023-04-10T09:24:27.441Z,101676.72
2023-04-10T09:26:54.727Z,101648.91
2023-04-10T09:29:21.743Z,101648.19
2023-04-10T09:31:48.473Z,101664.88
2023-04-10T09:34:23.067Z,101648.91
2023-04-10T09:36:58.561Z,101655.50
2023-04-10T09:39:36.307Z,101644.94
2023-04-10T09:42:03.120Z,101610.91
2023-04-10T09:44:34.758Z,101595.94
2023-04-10T09:47:13.881Z,101629.56
2023-04-10T09:49:55.033Z,101601.69
2023-04-10T09:52:25.698Z,101605.50
2023-04-10T09:54:53.920Z,101623.78
2023-04-10T09:57:22.631Z,101588.59
2023-04-10T09:59:58.533Z,101602.28
2023-04-10T10:02:26.866Z,101598.84
2023-04-10T10:04:53.867Z,101602.69
2023-04-10T10:07:22.951Z,101600.84
2023-04-10T10:09:52.154Z,101599.69
2023-04-10T10:12:45.047Z,101587.50
2023-04-10T10:15:20.682Z,101583.25
2023-04-10T10:18:04.605Z,101564.75
2023-04-10T10:20:35.428Z,101554.03
2023-04-10T10:23:04.337Z,101556.78
2023-04-10T10:25:31.642Z,101525.69
2023-04-10T10:28:02.908Z,101537.00
2023-04-10T10:30:35.275Z,101535.91
2023-04-10T10:33:05.732Z,101544.78
2023-04-10T10:35:34.322Z,101530.88
2023-04-10T10:38:03.524Z,101529.88
2023-04-10T10:40:30.148Z,101531.56
2023-04-10T10:43:12.378Z,101520.38
2023-04-10T10:45:51.153Z,101519.13
2023-04-10T10:48:18.171Z,101488.00
2023-04-10T10:50:52.879Z,101505.06
2023-04-10T10:53:32.155Z,101475.88
2023-04-10T10:55:58.737Z,101492.91
2023-04-10T10:58:47.212Z,101498.09
2023-04-10T11:01:14.516Z,101498.94
2023-04-10T11:03:41.948Z,101478.69
2023-04-10T11:06:09.739Z,101485.47
2023-04-10T11:08:46.581Z,101464.00
2023-04-10T11:11:27.562Z,101451.94
2023-04-10T11:13:56.327Z,101477.16
2023-04-10T11:16:42.930Z,101443.97
2023-04-10T11:19:16.642Z,101455.09
2023-04-10T11:22:02.529Z,101460.44
2023-04-10T11:24:30.153Z,101457.09
2023-04-10T11:26:57.499Z,101450.06
2023-04-10T11:29:27.147Z,101437.22
2023-04-10T11:31:58.748Z,101435.38
2023-04-10T11:34:27.545Z,101432.38
2023-04-10T11:36:54.625Z,101415.09
2023-04-10T11:39:21.654Z,101403.41
2023-04-10T11:41:50.452Z,101385.53
2023-04-10T11:44:39.734Z,101384.88
2023-04-10T11:47:06.770Z,101381.56
2023-04-10T11:49:34.939Z,101381.63
2023-04-10T11:52:02.213Z,101375.22
2023-04-10T11:54:29.853Z,101378.25
2023-04-10T11:57:04.871Z,101361.97
2023-04-10T11:59:33.080Z,101375.06
2023-04-10T12:02:11.660Z,101341.03
2023-04-10T12:04:38.481Z,101330.00
2023-04-10T12:07:05.643Z,101343.91
2023-04-10T12:09:32.367Z,101336.28
2023-04-10T12:12:05.008Z,101347.06
2023-04-10T12:14:32.343Z,101333.19
2023-04-10T12:17:00.003Z,101329.34
2023-04-10T12:19:27.434Z,101330.91
2023-04-10T12:21:55.930Z,101316.34
2023-04-10T12:24:47.674Z,101314.19
2023-04-10T12:27:26.650Z,101312.84
2023-04-10T12:29:56.008Z,101326.91
2023-04-10T12:32:23.506Z,101314.19
2023-04-10T12:34:57.379Z,101308.84
2023-04-10T12:37:25.923Z,101279.16
2023-04-10T12:39:52.693Z,101284.19
2023-04-10T12:42:23.334Z,101296.94
2023-04-10T12:44:58.811Z,101278.00
2023-04-10T12:47:27.042Z,101277.00
2023-04-10T12:50:11.003Z,101265.78
2023-04-10T12:52:58.960Z,101282.69
2023-04-10T12:55:25.872Z,101260.06
2023-04-10T12:57:54.977Z,101284.69
2023-04-10T13:00:21.623Z,101263.09
2023-04-10T13:02:49.158Z,101271.28
2023-04-10T13:05:16.432Z,101260.56
2023-04-10T13:07:43.345Z,101249.50
2023-04-10T13:10:10.578Z,101212.31
2023-04-10T13:12:38.987Z,101246.00
2023-04-10T13:15:07.895Z,101218.03
2023-04-10T13:17:34.913Z,101188.38
2023-04-10T13:20:01.947Z,101239.50
2023-04-10T13:22:28.696Z,101214.88
2023-04-10T13:24:55.451Z,101212.72
2023-04-10T13:27:22.065Z,101191.28
2023-04-10T13:29:48.686Z,101199.28
2023-04-10T13:32:15.706Z,101175.53
2023-04-10T13:34:42.309Z,101169.50
2023-04-10T13:37:11.782Z,101155.13
2023-04-10T13:39:38.528Z,101132.22
2023-04-10T13:42:06.129Z,101164.84
2023-04-10T13:44:33.010Z,101125.13
2023-04-10T13:46:59.801Z,101137.38
2023-04-10T13:49:26.640Z,101079.78
2023-04-10T13:51:53.295Z,101151.44
2023-04-10T13:54:20.212Z,101135.38
2023-04-10T13:56:46.922Z,101127.34
2023-04-10T13:59:14.042Z,101135.69
2023-04-10T14:01:40.742Z,101092.88
2023-04-10T14:04:07.686Z,101080.31
2023-04-10T14:06:35.076Z,101092.22
2023-04-10T14:09:01.941Z,101079.47
2023-04-10T14:11:28.605Z,101034.66
2023-04-10T14:13:55.533Z,101088.66
2023-04-10T14:16:22.284Z,101106.28
2023-04-10T14:18:48.932Z,101081.78
2023-04-10T14:21:15.770Z,101092.69
2023-04-10T14:23:43.095Z,101056.06
2023-04-10T14:26:09.716Z,101069.44
2023-04-10T14:28:36.774Z,101060.88
2023-04-10T14:31:04.937Z,101039.97
2023-04-10T14:33:31.586Z,101058.19
2023-04-10T14:35:58.389Z,101038.81
2023-04-10T14:38:25.372Z,101054.03
2023-04-10T14:40:52.092Z,101034.75
2023-04-10T14:43:19.639Z,101028.41
2023-04-10T14:45:46.402Z,101020.53
2023-04-10T14:48:13.536Z,101028.06
2023-04-10T14:50:40.555Z,101038.94
2023-04-10T14:53:09.811Z,101043.44
2023-04-10T14:55:37.325Z,101044.59
2023-04-10T14:58:04.887Z,101044.94
2023-04-10T15:00:32.461Z,101031.38
2023-04-10T15:02:59.437Z,101042.72
2023-04-10T15:05:27.499Z,101040.25
2023-04-10T15:07:54.771Z,101000.69
2023-04-10T15:10:21.519Z,101031.50
2023-04-10T15:12:48.324Z,101021.47
2023-04-10T15:15:15.094Z,100975.91
2023-04-10T15:17:41.752Z,101005.84
2023-04-10T15:20:08.878Z,100939.94
2023-04-10T15:22:36.083Z,100989.63
2023-04-10T15:25:03.380Z,101015.84
2023-04-10T15:27:30.123Z,101012.47
2023-04-10T15:29:56.797Z,101009.06
2023-04-10T15:32:23.478Z,101003.91
2023-04-10T15:34:50.146Z,100986.84
2023-04-10T15:37:16.828Z,100969.72
2023-04-10T15:39:43.471Z,100977.03
2023-04-10T15:42:10.213Z,100968.16
2023-04-10T15:44:36.974Z,100961.63
2023-04-10T15:47:03.658Z,100953.25
2023-04-10T15:49:37.873Z,100946.25
2023-04-10T15:52:08.285Z,100934.84
2023-04-10T15:54:35.466Z,100913.75
2023-04-10T15:57:02.542Z,100858.88
2023-04-10T15:59:29.758Z,100921.19
2023-04-10T16:01:56.550Z,100911.97
2023-04-10T16:04:23.767Z,100898.34
2023-04-10T16:06:50.894Z,100879.59
2023-04-10T16:11:48.114Z,100868.19
2023-04-10T16:14:14.824Z,100891.91
2023-04-10T16:16:41.473Z,100895.22
2023-04-10T16:19:08.208Z,100903.28
2023-04-10T16:21:35.013Z,100888.19
2023-04-10T16:24:02.277Z,100893.53
2023-04-10T16:26:28.880Z,100892.47
2023-04-10T16:28:56.163Z,100878.59
2023-04-10T16:31:23.260Z,100898.06
2023-04-10T16:33:49.834Z,100909.72
2023-04-10T16:36:16.530Z,100896.25
2023-04-10T16:38:43.665Z,100910.72
2023-04-10T16:41:11.356Z,100925.56
2023-04-10T16:43:38.042Z,100910.25
2023-04-10T16:46:05.195Z,100912.41
2023-04-10T16:48:33.079Z,100910.66
2023-04-10T16:51:05.760Z,100920.88
2023-04-10T16:53:33.694Z,100912.44
2023-04-10T16:56:03.548Z,100924.25
2023-04-10T16:58:31.736Z,100910.84
2023-04-10T17:00:58.992Z,100878.72
2023-04-10T17:03:25.752Z,100867.56
2023-04-10T17:05:52.467Z,100868.09
2023-04-10T17:08:19.232Z,100834.59
2023-04-10T17:10:45.892Z,100834.88
2023-04-10T17:13:12.585Z,100839.22
2023-04-10T17:15:39.320Z,100822.66
2023-04-10T17:18:06.039Z,100812.44
2023-04-10T17:20:36.202Z,100805.34
2023-04-10T17:23:03.160Z,100795.41
2023-04-10T17:25:30.207Z,100802.00
2023-04-10T17:27:57.636Z,100819.31
2023-04-10T17:30:24.517Z,100787.53
2023-04-10T17:32:51.240Z,100798.94
2023-04-10T17:35:17.891Z,100795.50
2023-04-10T17:37:44.840Z,100779.44
2023-04-10T17:40:11.927Z,100792.72
2023-04-10T17:42:38.652Z,100801.47
2023-04-10T17:45:06.220Z,100806.00
2023-04-10T17:47:32.859Z,100779.47
2023-04-10T17:49:59.617Z,100824.84
2023-04-10T17:52:26.412Z,100829.47
2023-04-10T17:54:52.998Z,100792.31
2023-04-10T17:57:19.663Z,100820.53
2023-04-10T17:59:46.293Z,100801.97
2023-04-10T18:02:12.999Z,100811.09
2023-04-10T18:04:39.760Z,100827.41
2023-04-10T18:07:06.552Z,100809.31
2023-04-10T18:09:33.152Z,100850.78
2023-04-10T18:11:59.866Z,100780.13
2023-04-10T18:14:26.547Z,100806.13
2023-04-10T18:16:53.265Z,100836.38
2023-04-10T18:19:19.951Z,100824.53
2023-04-10T18:21:46.669Z,100797.31
2023-04-10T18:24:14.122Z,100788.38
2023-04-10T18:26:41.751Z,100783.44
2023-04-10T18:29:08.474Z,100769.75
2023-04-10T18:31:35.075Z,100787.66
2023-04-10T18:34:07.544Z,100780.53
2023-04-10T18:36:34.893Z,100709.63
2023-04-10T18:39:01.533Z,100736.69
2023-04-10T18:41:28.494Z,100733.44
2023-04-10T18:44:04.071Z,100770.91
2023-04-10T18:46:32.689Z,100756.88
2023-04-10T18:49:01.438Z,100724.13
2023-04-10T18:51:28.458Z,100741.41
2023-04-10T18:53:55.763Z,100705.28
2023-04-10T18:56:22.819Z,100753.56
2023-04-10T18:58:50.296Z,100707.34
2023-04-10T19:01:20.768Z,100716.41
2023-04-10T19:03:50.762Z,100706.78
2023-04-10T19:06:24.301Z,100692.28
2023-04-10T19:08:51.738Z,100724.50
2023-04-10T19:11:18.765Z,100701.06
2023-04-10T19:13:45.621Z,100707.34
2023-04-10T19:16:19.261Z,100703.84
2023-04-10T19:18:49.782Z,100731.22
2023-04-10T19:21:16.416Z,100705.94
2023-04-10T19:23:43.216Z,100701.06
2023-04-10T19:26:09.987Z,100718.66
2023-04-10T19:28:36.896Z,100718.22
2023-04-10T19:31:04.022Z,100736.22
2023-04-10T19:33:31.102Z,100707.34
2023-04-10T19:35:59.137Z,100715.59
2023-04-10T19:38:27.557Z,100722.56
2023-04-10T19:40:54.792Z,100704.56
2023-04-10T19:43:21.517Z,100706.06
2023-04-10T19:45:48.298Z,100681.97
2023-04-10T19:48:16.747Z,100687.66
2023-04-10T19:50:43.514Z,100683.44
2023-04-10T19:53:14.513Z,100665.59
2023-04-10T19:55:41.607Z,100658.59
2023-04-10T19:58:13.347Z,100674.09
2023-04-10T20:00:44.654Z,100668.53
2023-04-10T20:03:11.546Z,100677.56
2023-04-10T20:05:38.345Z,100593.66
2023-04-10T20:08:05.411Z,100697.69
2023-04-10T20:10:32.961Z,100626.00
2023-04-10T20:12:59.816Z,100669.81
2023-04-10T20:15:26.695Z,100664.78
2023-04-10T20:17:53.616Z,100663.78
2023-04-10T20:20:20.858Z,100639.13
2023-04-10T20:22:48.257Z,100657.75
2023-04-10T20:25:14.948Z,100639.63
2023-04-10T20:27:41.601Z,100620.34
2023-04-10T20:30:08.721Z,100626.22
2023-04-10T20:32:35.426Z,100606.09
2023-04-10T20:35:02.277Z,100633.47
2023-04-10T20:37:29.332Z,100612.00
2023-04-10T20:39:55.886Z,100639.56
2023-04-10T20:42:23.345Z,100634.44
2023-04-10T20:44:50.244Z,100633.19
2023-04-10T20:47:16.882Z,100628.72
2023-04-10T20:49:45.285Z,100642.69
2023-04-10T20:52:12.561Z,100618.69
2023-04-10T20:54:39.241Z,100626.75
2023-04-10T20:57:06.146Z,100630.94
2023-04-10T20:59:33.333Z,100614.22
2023-04-10T21:02:00.115Z,100586.47
2023-04-10T21:04:26.830Z,100573.66
2023-04-10T21:06:53.823Z,100619.78
2023-04-10T21:09:20.892Z,100603.34
2023-04-10T21:11:47.513Z,100606.38
2023-04-10T21:14:14.711Z,100573.41
2023-04-10T21:16:42.546Z,100571.16
2023-04-10T21:19:09.677Z,100597.63
2023-04-10T21:21:36.421Z,100630.00
2023-04-10T21:24:03.350Z,100603.63
2023-04-10T21:26:29.931Z,100627.34
2023-04-10T21:28:56.564Z,100605.28
2023-04-10T21:31:23.233Z,100615.59
2023-04-10T21:33:49.910Z,100623.16
2023-04-10T21:36:16.798Z,100595.00
2023-04-10T21:38:43.526Z,100620.63
2023-04-10T21:41:10.161Z,100611.84
2023-04-10T21:43:38.545Z,100603.63
2023-04-10T21:46:06.254Z,100566.41
2023-04-10T21:48:32.957Z,100592.88
2023-04-10T21:50:59.889Z,100579.22
2023-04-10T21:53:26.573Z,100578.84
2023-04-10T21:55:53.146Z,100595.25
2023-04-10T21:58:19.767Z,100605.88
2023-04-10T22:00:47.426Z,100601.84
2023-04-10T22:03:20.323Z,100597.53
2023-04-10T22:05:48.989Z,100595.59
2023-04-10T22:08:16.041Z,100580.28
2023-04-10T22:10:45.313Z,100578.88
2023-04-10T22:13:19.814Z,100582.66
2023-04-10T22:15:54.534Z,100598.13
2023-04-10T22:18:21.283Z,100550.19
2023-04-10T22:20:47.853Z,100601.75
2023-04-10T22:23:14.464Z,100591.47
2023-04-10T22:25:41.266Z,100598.72
2023-04-10T22:28:08.006Z,100563.59
2023-04-10T22:30:35.519Z,100576.97
2023-04-10T22:33:02.467Z,100557.72
2023-04-10T22:35:29.359Z,100586.47
2023-04-10T22:37:57.030Z,100578.78
2023-04-10T22:40:23.726Z,100547.00
2023-04-10T22:42:50.573Z,100556.91
2023-04-10T22:45:17.150Z,100517.03
2023-04-10T22:47:43.906Z,100564.41
2023-04-10T22:50:10.614Z,100555.22
2023-04-10T22:52:37.239Z,100532.22
2023-04-10T22:55:07.093Z,100526.78
2023-04-10T22:57:33.987Z,100542.38
2023-04-10T23:00:00.896Z,100468.09
2023-04-10T23:02:27.937Z,100448.69
2023-04-10T23:04:54.688Z,100527.13
2023-04-10T23:07:21.328Z,100518.06
2023-04-10T23:09:48.088Z,100552.41
2023-04-10T23:12:14.741Z,100540.84
2023-04-10T23:14:41.315Z,100569.41
2023-04-10T23:17:08.120Z,100577.81
2023-04-10T23:19:34.702Z,100571.41
2023-04-10T23:22:01.315Z,100603.63
2023-04-10T23:24:27.972Z,100580.63
2023-04-10T23:26:54.515Z,100593.88
2023-04-10T23:29:21.054Z,100567.06
2023-04-10T23:31:47.738Z,100578.91
2023-04-10T23:34:14.413Z,100580.44
2023-04-10T23:36:41.123Z,100588.91
2023-04-10T23:39:08.560Z,100611.75
2023-04-10T23:41:35.208Z,100633.91
2023-04-10T23:44:01.871Z,100598.47
2023-04-10T23:46:28.668Z,100575.69
2023-04-10T23:48:56.709Z,100626.03
2023-04-10T23:51:23.329Z,100622.22
2023-04-10T23:53:49.985Z,100604.63
2023-04-10T23:56:16.846Z,100551.97
2023-04-10T23:58:43.465Z,100494.81
